sensor_id;sensor_type;location;lat;lon;timestamp;temperature;humidity
19945;DHT22;10134;50.952;6.930;2023-06-22T00:00:22;25.70;84.90
19945;DHT22;10134;50.952;6.930;2023-06-22T00:02:50;25.70;84.70
19945;DHT22;10134;50.952;6.930;2023-06-22T00:05:17;25.60;84.50
19945;DHT22;10134;50.952;6.930;2023-06-22T00:07:44;25.70;84.50
19945;DHT22;10134;50.952;6.930;2023-06-22T00:10:12;25.70;84.50
19945;DHT22;10134;50.952;6.930;2023-06-22T00:12:39;25.60;84.30
19945;DHT22;10134;50.952;6.930;2023-06-22T00:15:06;25.60;84.40
19945;DHT22;10134;50.952;6.930;2023-06-22T00:17:34;25.60;84.40
19945;DHT22;10134;50.952;6.930;2023-06-22T00:20:01;25.50;84.40
19945;DHT22;10134;50.952;6.930;2023-06-22T00:22:32;25.50;84.40
19945;DHT22;10134;50.952;6.930;2023-06-22T00:25:09;25.60;84.40
19945;DHT22;10134;50.952;6.930;2023-06-22T00:27:36;25.60;84.30
19945;DHT22;10134;50.952;6.930;2023-06-22T00:30:06;25.50;84.40
19945;DHT22;10134;50.952;6.930;2023-06-22T00:32:34;25.50;84.50
19945;DHT22;10134;50.952;6.930;2023-06-22T00:35:01;25.50;85.10
19945;DHT22;10134;50.952;6.930;2023-06-22T00:37:29;25.50;84.50
19945;DHT22;10134;50.952;6.930;2023-06-22T00:39:57;25.50;84.50
19945;DHT22;10134;50.952;6.930;2023-06-22T00:42:24;25.50;85.20
19945;DHT22;10134;50.952;6.930;2023-06-22T00:44:52;25.50;84.60
19945;DHT22;10134;50.952;6.930;2023-06-22T00:47:20;25.50;84.60
19945;DHT22;10134;50.952;6.930;2023-06-22T00:49:49;25.50;84.80
19945;DHT22;10134;50.952;6.930;2023-06-22T00:52:20;25.50;84.70
19945;DHT22;10134;50.952;6.930;2023-06-22T00:54:50;25.50;84.80
19945;DHT22;10134;50.952;6.930;2023-06-22T00:57:19;25.50;84.90
19945;DHT22;10134;50.952;6.930;2023-06-22T00:59:48;25.50;85.00
19945;DHT22;10134;50.952;6.930;2023-06-22T01:02:16;25.50;85.00
19945;DHT22;10134;50.952;6.930;2023-06-22T01:04:43;25.50;85.10
19945;DHT22;10134;50.952;6.930;2023-06-22T01:07:39;25.50;85.10
19945;DHT22;10134;50.952;6.930;2023-06-22T01:10:25;25.40;84.90
19945;DHT22;10134;50.952;6.930;2023-06-22T01:13:01;25.50;85.00
19945;DHT22;10134;50.952;6.930;2023-06-22T01:18:14;25.40;84.90
19945;DHT22;10134;50.952;6.930;2023-06-22T01:20:43;25.50;85.10
19945;DHT22;10134;50.952;6.930;2023-06-22T01:23:33;25.50;85.00
19945;DHT22;10134;50.952;6.930;2023-06-22T01:26:18;25.40;85.10
19945;DHT22;10134;50.952;6.930;2023-06-22T01:28:50;25.50;85.10
19945;DHT22;10134;50.952;6.930;2023-06-22T01:31:22;25.40;85.10
19945;DHT22;10134;50.952;6.930;2023-06-22T01:33:53;25.50;85.10
19945;DHT22;10134;50.952;6.930;2023-06-22T01:36:22;25.40;85.10
19945;DHT22;10134;50.952;6.930;2023-06-22T01:38:52;25.40;85.20
19945;DHT22;10134;50.952;6.930;2023-06-22T01:41:20;25.40;85.20
19945;DHT22;10134;50.952;6.930;2023-06-22T01:43:48;25.40;85.30
19945;DHT22;10134;50.952;6.930;2023-06-22T01:46:17;25.40;85.30
19945;DHT22;10134;50.952;6.930;2023-06-22T01:48:46;25.40;85.50
19945;DHT22;10134;50.952;6.930;2023-06-22T01:51:14;25.40;85.50
19945;DHT22;10134;50.952;6.930;2023-06-22T01:53:42;25.30;85.30
19945;DHT22;10134;50.952;6.930;2023-06-22T01:56:09;25.30;85.50
19945;DHT22;10134;50.952;6.930;2023-06-22T01:58:45;25.30;85.60
19945;DHT22;10134;50.952;6.930;2023-06-22T02:01:23;25.30;85.60
19945;DHT22;10134;50.952;6.930;2023-06-22T02:04:02;25.30;85.70
19945;DHT22;10134;50.952;6.930;2023-06-22T02:06:34;25.30;85.80
19945;DHT22;10134;50.952;6.930;2023-06-22T02:09:11;25.30;86.60
19945;DHT22;10134;50.952;6.930;2023-06-22T02:11:41;25.30;85.90
19945;DHT22;10134;50.952;6.930;2023-06-22T02:14:10;25.20;85.80
19945;DHT22;10134;50.952;6.930;2023-06-22T02:16:39;25.20;85.90
19945;DHT22;10134;50.952;6.930;2023-06-22T02:19:08;25.20;85.80
19945;DHT22;10134;50.952;6.930;2023-06-22T02:21:35;25.20;86.00
19945;DHT22;10134;50.952;6.930;2023-06-22T02:24:03;25.20;86.20
19945;DHT22;10134;50.952;6.930;2023-06-22T02:26:30;25.20;86.30
19945;DHT22;10134;50.952;6.930;2023-06-22T02:29:01;25.20;86.50
19945;DHT22;10134;50.952;6.930;2023-06-22T02:35:48;25.10;86.50
19945;DHT22;10134;50.952;6.930;2023-06-22T02:38:16;25.00;86.50
19945;DHT22;10134;50.952;6.930;2023-06-22T02:40:44;25.10;86.70
19945;DHT22;10134;50.952;6.930;2023-06-22T02:43:13;25.00;86.70
19945;DHT22;10134;50.952;6.930;2023-06-22T02:45:40;25.00;86.90
19945;DHT22;10134;50.952;6.930;2023-06-22T02:48:08;25.00;87.20
19945;DHT22;10134;50.952;6.930;2023-06-22T02:50:36;25.00;87.20
19945;DHT22;10134;50.952;6.930;2023-06-22T02:53:04;25.00;87.30
19945;DHT22;10134;50.952;6.930;2023-06-22T02:55:36;25.00;87.40
19945;DHT22;10134;50.952;6.930;2023-06-22T03:12:19;24.80;88.40
19945;DHT22;10134;50.952;6.930;2023-06-22T03:14:52;24.80;88.60
19945;DHT22;10134;50.952;6.930;2023-06-22T03:17:19;24.80;88.90
19945;DHT22;10134;50.952;6.930;2023-06-22T03:19:47;24.70;89.00
19945;DHT22;10134;50.952;6.930;2023-06-22T03:22:14;24.70;89.10
19945;DHT22;10134;50.952;6.930;2023-06-22T03:24:42;24.70;89.20
19945;DHT22;10134;50.952;6.930;2023-06-22T03:27:09;24.60;89.20
19945;DHT22;10134;50.952;6.930;2023-06-22T03:29:36;24.70;89.50
19945;DHT22;10134;50.952;6.930;2023-06-22T03:32:04;24.60;89.50
19945;DHT22;10134;50.952;6.930;2023-06-22T03:34:33;24.60;89.70
19945;DHT22;10134;50.952;6.930;2023-06-22T03:37:03;24.60;89.80
19945;DHT22;10134;50.952;6.930;2023-06-22T03:39:31;24.60;89.70
19945;DHT22;10134;50.952;6.930;2023-06-22T03:41:58;24.60;89.80
19945;DHT22;10134;50.952;6.930;2023-06-22T03:44:26;24.70;90.00
19945;DHT22;10134;50.952;6.930;2023-06-22T03:46:53;24.60;90.10
19945;DHT22;10134;50.952;6.930;2023-06-22T03:49:21;24.60;90.00
19945;DHT22;10134;50.952;6.930;2023-06-22T03:51:48;24.60;90.00
19945;DHT22;10134;50.952;6.930;2023-06-22T03:54:15;24.60;90.10
19945;DHT22;10134;50.952;6.930;2023-06-22T03:56:43;24.60;90.10
19945;DHT22;10134;50.952;6.930;2023-06-22T03:59:10;24.60;90.10
19945;DHT22;10134;50.952;6.930;2023-06-22T04:01:37;24.60;90.20
19945;DHT22;10134;50.952;6.930;2023-06-22T04:04:05;24.60;90.20
19945;DHT22;10134;50.952;6.930;2023-06-22T04:06:33;24.60;90.20
19945;DHT22;10134;50.952;6.930;2023-06-22T04:09:01;24.70;90.20
19945;DHT22;10134;50.952;6.930;2023-06-22T04:11:29;24.70;90.20
19945;DHT22;10134;50.952;6.930;2023-06-22T04:13:56;24.70;90.20
19945;DHT22;10134;50.952;6.930;2023-06-22T04:16:24;24.70;90.20
19945;DHT22;10134;50.952;6.930;2023-06-22T04:18:51;24.70;90.20
19945;DHT22;10134;50.952;6.930;2023-06-22T04:21:18;24.70;90.30
19945;DHT22;10134;50.952;6.930;2023-06-22T04:23:46;24.80;90.30
19945;DHT22;10134;50.952;6.930;2023-06-22T04:26:14;24.80;90.30
19945;DHT22;10134;50.952;6.930;2023-06-22T04:28:41;24.80;90.40
19945;DHT22;10134;50.952;6.930;2023-06-22T04:31:09;24.80;90.40
19945;DHT22;10134;50.952;6.930;2023-06-22T04:33:36;24.80;90.60
19945;DHT22;10134;50.952;6.930;2023-06-22T04:36:07;24.80;90.70
19945;DHT22;10134;50.952;6.930;2023-06-22T04:38:35;24.80;90.90
19945;DHT22;10134;50.952;6.930;2023-06-22T04:41:02;24.80;91.00
19945;DHT22;10134;50.952;6.930;2023-06-22T04:43:30;24.80;91.10
19945;DHT22;10134;50.952;6.930;2023-06-22T04:45:58;24.80;91.20
19945;DHT22;10134;50.952;6.930;2023-06-22T04:48:30;24.80;91.30
19945;DHT22;10134;50.952;6.930;2023-06-22T04:51:02;24.80;91.50
19945;DHT22;10134;50.952;6.930;2023-06-22T04:53:31;24.80;91.60
19945;DHT22;10134;50.952;6.930;2023-06-22T04:55:59;24.80;91.80
19945;DHT22;10134;50.952;6.930;2023-06-22T04:58:26;24.90;92.00
19945;DHT22;10134;50.952;6.930;2023-06-22T05:00:59;24.80;92.10
19945;DHT22;10134;50.952;6.930;2023-06-22T05:03:26;24.90;92.30
19945;DHT22;10134;50.952;6.930;2023-06-22T05:05:54;24.90;92.40
19945;DHT22;10134;50.952;6.930;2023-06-22T05:08:22;24.90;92.60
19945;DHT22;10134;50.952;6.930;2023-06-22T05:10:55;24.90;92.80
19945;DHT22;10134;50.952;6.930;2023-06-22T05:13:32;24.90;93.00
19945;DHT22;10134;50.952;6.930;2023-06-22T05:15:59;24.90;93.40
19945;DHT22;10134;50.952;6.930;2023-06-22T05:18:30;24.90;93.50
19945;DHT22;10134;50.952;6.930;2023-06-22T05:20:58;24.90;93.90
19945;DHT22;10134;50.952;6.930;2023-06-22T05:23:26;24.90;94.10
19945;DHT22;10134;50.952;6.930;2023-06-22T05:25:54;24.90;94.40
19945;DHT22;10134;50.952;6.930;2023-06-22T05:28:22;25.00;94.60
19945;DHT22;10134;50.952;6.930;2023-06-22T05:30:51;24.90;94.80
19945;DHT22;10134;50.952;6.930;2023-06-22T05:33:18;25.00;95.10
19945;DHT22;10134;50.952;6.930;2023-06-22T05:35:46;25.00;95.20
19945;DHT22;10134;50.952;6.930;2023-06-22T05:38:14;25.00;95.20
19945;DHT22;10134;50.952;6.930;2023-06-22T05:40:41;25.00;95.20
19945;DHT22;10134;50.952;6.930;2023-06-22T05:43:09;25.00;95.20
19945;DHT22;10134;50.952;6.930;2023-06-22T05:45:36;25.10;95.30
19945;DHT22;10134;50.952;6.930;2023-06-22T05:48:04;25.10;95.30
19945;DHT22;10134;50.952;6.930;2023-06-22T05:50:31;25.10;95.30
19945;DHT22;10134;50.952;6.930;2023-06-22T05:52:59;25.20;95.40
19945;DHT22;10134;50.952;6.930;2023-06-22T05:55:26;25.20;95.40
19945;DHT22;10134;50.952;6.930;2023-06-22T05:57:54;25.30;95.40
19945;DHT22;10134;50.952;6.930;2023-06-22T06:00:21;25.30;95.50
19945;DHT22;10134;50.952;6.930;2023-06-22T06:02:49;25.40;95.60
19945;DHT22;10134;50.952;6.930;2023-06-22T06:05:16;25.40;95.50
19945;DHT22;10134;50.952;6.930;2023-06-22T06:07:45;25.50;95.70
19945;DHT22;10134;50.952;6.930;2023-06-22T06:10:13;25.50;95.80
19945;DHT22;10134;50.952;6.930;2023-06-22T06:12:40;25.50;95.80
19945;DHT22;10134;50.952;6.930;2023-06-22T06:15:08;25.60;95.70
19945;DHT22;10134;50.952;6.930;2023-06-22T06:17:48;25.60;95.70
19945;DHT22;10134;50.952;6.930;2023-06-22T06:20:20;25.60;95.90
19945;DHT22;10134;50.952;6.930;2023-06-22T06:22:48;25.70;95.90
19945;DHT22;10134;50.952;6.930;2023-06-22T06:25:16;25.70;95.90
19945;DHT22;10134;50.952;6.930;2023-06-22T06:27:44;25.70;95.80
19945;DHT22;10134;50.952;6.930;2023-06-22T06:30:13;25.70;95.90
19945;DHT22;10134;50.952;6.930;2023-06-22T06:32:41;25.80;96.00
19945;DHT22;10134;50.952;6.930;2023-06-22T06:35:10;25.80;95.90
19945;DHT22;10134;50.952;6.930;2023-06-22T06:37:40;25.90;96.00
19945;DHT22;10134;50.952;6.930;2023-06-22T06:40:09;25.90;96.00
19945;DHT22;10134;50.952;6.930;2023-06-22T06:42:38;25.90;96.10
19945;DHT22;10134;50.952;6.930;2023-06-22T06:45:10;26.00;96.30
19945;DHT22;10134;50.952;6.930;2023-06-22T06:47:38;26.10;96.40
19945;DHT22;10134;50.952;6.930;2023-06-22T06:50:07;26.10;96.40
19945;DHT22;10134;50.952;6.930;2023-06-22T06:52:35;26.10;96.40
19945;DHT22;10134;50.952;6.930;2023-06-22T06:55:06;26.20;96.60
19945;DHT22;10134;50.952;6.930;2023-06-22T06:57:35;26.20;96.70
19945;DHT22;10134;50.952;6.930;2023-06-22T07:00:09;26.20;96.80
19945;DHT22;10134;50.952;6.930;2023-06-22T07:02:45;26.20;96.80
19945;DHT22;10134;50.952;6.930;2023-06-22T07:05:14;26.20;96.90
19945;DHT22;10134;50.952;6.930;2023-06-22T07:07:42;26.30;96.90
19945;DHT22;10134;50.952;6.930;2023-06-22T07:10:10;26.30;97.00
19945;DHT22;10134;50.952;6.930;2023-06-22T07:12:38;26.30;96.90
19945;DHT22;10134;50.952;6.930;2023-06-22T07:15:06;26.40;97.10
19945;DHT22;10134;50.952;6.930;2023-06-22T07:17:39;26.40;97.00
19945;DHT22;10134;50.952;6.930;2023-06-22T07:20:10;26.50;97.00
19945;DHT22;10134;50.952;6.930;2023-06-22T07:22:40;26.50;96.90
19945;DHT22;10134;50.952;6.930;2023-06-22T07:25:08;26.50;96.90
19945;DHT22;10134;50.952;6.930;2023-06-22T07:27:38;26.50;96.90
19945;DHT22;10134;50.952;6.930;2023-06-22T07:30:07;26.60;96.80
19945;DHT22;10134;50.952;6.930;2023-06-22T07:32:35;26.60;96.70
19945;DHT22;10134;50.952;6.930;2023-06-22T07:35:03;26.60;96.60
19945;DHT22;10134;50.952;6.930;2023-06-22T07:37:31;26.70;96.60
19945;DHT22;10134;50.952;6.930;2023-06-22T07:40:00;26.80;96.50
19945;DHT22;10134;50.952;6.930;2023-06-22T07:42:27;26.80;96.20
19945;DHT22;10134;50.952;6.930;2023-06-22T07:45:00;26.80;96.00
19945;DHT22;10134;50.952;6.930;2023-06-22T07:47:27;26.80;95.90
19945;DHT22;10134;50.952;6.930;2023-06-22T07:49:57;26.80;95.90
19945;DHT22;10134;50.952;6.930;2023-06-22T07:52:25;26.90;96.00
19945;DHT22;10134;50.952;6.930;2023-06-22T07:54:53;26.80;95.90
19945;DHT22;10134;50.952;6.930;2023-06-22T07:57:21;26.80;96.10
19945;DHT22;10134;50.952;6.930;2023-06-22T07:59:48;26.80;96.00
19945;DHT22;10134;50.952;6.930;2023-06-22T08:02:15;26.90;96.10
19945;DHT22;10134;50.952;6.930;2023-06-22T08:04:43;26.90;96.20
19945;DHT22;10134;50.952;6.930;2023-06-22T08:07:10;27.00;96.20
19945;DHT22;10134;50.952;6.930;2023-06-22T08:09:37;27.00;96.20
19945;DHT22;10134;50.952;6.930;2023-06-22T08:12:05;27.00;96.20
19945;DHT22;10134;50.952;6.930;2023-06-22T08:14:32;27.10;96.20
19945;DHT22;10134;50.952;6.930;2023-06-22T08:17:03;27.10;96.20
19945;DHT22;10134;50.952;6.930;2023-06-22T08:19:30;27.10;96.20
19945;DHT22;10134;50.952;6.930;2023-06-22T08:21:58;27.10;96.10
19945;DHT22;10134;50.952;6.930;2023-06-22T08:24:25;27.20;96.10
19945;DHT22;10134;50.952;6.930;2023-06-22T08:26:57;27.20;96.00
19945;DHT22;10134;50.952;6.930;2023-06-22T08:29:24;27.30;95.90
19945;DHT22;10134;50.952;6.930;2023-06-22T08:31:55;27.30;95.90
19945;DHT22;10134;50.952;6.930;2023-06-22T08:34:22;27.30;95.70
19945;DHT22;10134;50.952;6.930;2023-06-22T08:36:52;27.40;95.60
19945;DHT22;10134;50.952;6.930;2023-06-22T08:39:20;27.50;95.60
19945;DHT22;10134;50.952;6.930;2023-06-22T08:41:47;27.50;95.40
19945;DHT22;10134;50.952;6.930;2023-06-22T08:44:18;27.60;95.40
19945;DHT22;10134;50.952;6.930;2023-06-22T08:46:45;27.60;95.30
19945;DHT22;10134;50.952;6.930;2023-06-22T08:49:13;27.70;95.30
19945;DHT22;10134;50.952;6.930;2023-06-22T08:51:40;27.70;95.20
19945;DHT22;10134;50.952;6.930;2023-06-22T08:54:07;27.80;95.10
19945;DHT22;10134;50.952;6.930;2023-06-22T08:56:34;27.90;95.00
19945;DHT22;10134;50.952;6.930;2023-06-22T08:59:02;28.00;94.90
19945;DHT22;10134;50.952;6.930;2023-06-22T09:01:29;28.00;94.80
19945;DHT22;10134;50.952;6.930;2023-06-22T09:03:56;28.10;94.70
19945;DHT22;10134;50.952;6.930;2023-06-22T09:06:27;28.10;94.80
19945;DHT22;10134;50.952;6.930;2023-06-22T09:08:54;28.20;94.70
19945;DHT22;10134;50.952;6.930;2023-06-22T09:11:21;28.20;95.20
19945;DHT22;10134;50.952;6.930;2023-06-22T09:13:49;28.30;96.00
19945;DHT22;10134;50.952;6.930;2023-06-22T09:16:16;28.30;96.20
19945;DHT22;10134;50.952;6.930;2023-06-22T09:18:47;28.30;97.80
19945;DHT22;10134;50.952;6.930;2023-06-22T09:21:14;28.20;98.80
19945;DHT22;10134;50.952;6.930;2023-06-22T09:23:42;28.20;97.50
19945;DHT22;10134;50.952;6.930;2023-06-22T09:26:09;28.20;96.90
19945;DHT22;10134;50.952;6.930;2023-06-22T09:28:37;28.10;96.80
19945;DHT22;10134;50.952;6.930;2023-06-22T09:31:04;28.10;97.50
19945;DHT22;10134;50.952;6.930;2023-06-22T09:33:32;28.10;96.80
19945;DHT22;10134;50.952;6.930;2023-06-22T09:35:59;28.10;97.70
19945;DHT22;10134;50.952;6.930;2023-06-22T09:38:26;28.00;98.00
19945;DHT22;10134;50.952;6.930;2023-06-22T09:40:54;28.00;98.00
19945;DHT22;10134;50.952;6.930;2023-06-22T09:43:21;28.00;98.10
19945;DHT22;10134;50.952;6.930;2023-06-22T09:45:48;28.00;97.50
19945;DHT22;10134;50.952;6.930;2023-06-22T09:48:15;28.10;97.40
19945;DHT22;10134;50.952;6.930;2023-06-22T09:50:43;28.20;97.20
19945;DHT22;10134;50.952;6.930;2023-06-22T09:53:12;28.30;97.40
19945;DHT22;10134;50.952;6.930;2023-06-22T09:55:40;28.30;96.40
19945;DHT22;10134;50.952;6.930;2023-06-22T09:58:08;28.40;96.30
19945;DHT22;10134;50.952;6.930;2023-06-22T10:00:35;28.50;96.40
19945;DHT22;10134;50.952;6.930;2023-06-22T10:03:03;28.60;96.70
19945;DHT22;10134;50.952;6.930;2023-06-22T10:05:30;28.50;97.00
19945;DHT22;10134;50.952;6.930;2023-06-22T10:07:59;28.50;96.40
19945;DHT22;10134;50.952;6.930;2023-06-22T10:10:26;28.50;95.90
19945;DHT22;10134;50.952;6.930;2023-06-22T10:13:01;28.40;95.80
19945;DHT22;10134;50.952;6.930;2023-06-22T10:15:29;28.30;95.60
19945;DHT22;10134;50.952;6.930;2023-06-22T10:17:57;28.20;95.80
19945;DHT22;10134;50.952;6.930;2023-06-22T10:20:24;28.20;96.00
19945;DHT22;10134;50.952;6.930;2023-06-22T10:22:53;28.10;96.60
19945;DHT22;10134;50.952;6.930;2023-06-22T10:25:21;28.00;97.10
19945;DHT22;10134;50.952;6.930;2023-06-22T10:27:48;27.90;97.80
19945;DHT22;10134;50.952;6.930;2023-06-22T10:30:16;27.90;97.70
19945;DHT22;10134;50.952;6.930;2023-06-22T10:32:44;27.80;98.20
19945;DHT22;10134;50.952;6.930;2023-06-22T10:35:11;27.70;98.80
19945;DHT22;10134;50.952;6.930;2023-06-22T10:37:44;27.70;98.90
19945;DHT22;10134;50.952;6.930;2023-06-22T10:40:12;27.60;99.70
19945;DHT22;10134;50.952;6.930;2023-06-22T10:42:40;27.60;99.90
19945;DHT22;10134;50.952;6.930;2023-06-22T10:45:08;27.50;99.90
19945;DHT22;10134;50.952;6.930;2023-06-22T10:47:36;27.50;99.90
19945;DHT22;10134;50.952;6.930;2023-06-22T10:50:04;27.40;99.90
19945;DHT22;10134;50.952;6.930;2023-06-22T10:52:32;27.30;99.90
19945;DHT22;10134;50.952;6.930;2023-06-22T10:54:59;27.20;99.90
19945;DHT22;10134;50.952;6.930;2023-06-22T10:57:26;27.10;99.90
19945;DHT22;10134;50.952;6.930;2023-06-22T10:59:54;27.10;99.90
19945;DHT22;10134;50.952;6.930;2023-06-22T11:02:21;27.00;99.90
19945;DHT22;10134;50.952;6.930;2023-06-22T11:04:48;26.90;99.90
19945;DHT22;10134;50.952;6.930;2023-06-22T11:07:16;26.80;99.90
19945;DHT22;10134;50.952;6.930;2023-06-22T11:09:44;26.80;99.90
19945;DHT22;10134;50.952;6.930;2023-06-22T11:12:11;26.70;99.90
19945;DHT22;10134;50.952;6.930;2023-06-22T11:14:39;26.60;99.90
19945;DHT22;10134;50.952;6.930;2023-06-22T11:17:06;26.50;99.90
19945;DHT22;10134;50.952;6.930;2023-06-22T11:19:33;26.40;99.90
19945;DHT22;10134;50.952;6.930;2023-06-22T11:22:01;26.40;99.90
19945;DHT22;10134;50.952;6.930;2023-06-22T11:24:28;26.30;99.90
19945;DHT22;10134;50.952;6.930;2023-06-22T11:26:56;26.30;99.90
19945;DHT22;10134;50.952;6.930;2023-06-22T11:29:26;26.30;99.90
19945;DHT22;10134;50.952;6.930;2023-06-22T11:32:13;26.40;99.90
19945;DHT22;10134;50.952;6.930;2023-06-22T11:34:41;26.40;99.90
19945;DHT22;10134;50.952;6.930;2023-06-22T11:37:08;26.40;99.90
19945;DHT22;10134;50.952;6.930;2023-06-22T11:39:36;26.50;99.90
19945;DHT22;10134;50.952;6.930;2023-06-22T11:42:12;26.50;99.90
19945;DHT22;10134;50.952;6.930;2023-06-22T11:44:39;26.60;99.90
19945;DHT22;10134;50.952;6.930;2023-06-22T11:47:06;26.60;99.90
19945;DHT22;10134;50.952;6.930;2023-06-22T11:49:34;26.60;99.90
19945;DHT22;10134;50.952;6.930;2023-06-22T11:52:01;26.50;99.90
19945;DHT22;10134;50.952;6.930;2023-06-22T11:54:28;26.50;99.90
19945;DHT22;10134;50.952;6.930;2023-06-22T11:56:56;26.50;99.90
19945;DHT22;10134;50.952;6.930;2023-06-22T11:59:24;26.50;99.90
19945;DHT22;10134;50.952;6.930;2023-06-22T12:01:51;26.50;99.90
19945;DHT22;10134;50.952;6.930;2023-06-22T12:04:18;26.50;99.90
19945;DHT22;10134;50.952;6.930;2023-06-22T12:06:46;26.50;99.90
19945;DHT22;10134;50.952;6.930;2023-06-22T12:09:13;26.60;99.90
19945;DHT22;10134;50.952;6.930;2023-06-22T12:11:41;26.70;99.90
19945;DHT22;10134;50.952;6.930;2023-06-22T12:14:08;26.80;99.90
19945;DHT22;10134;50.952;6.930;2023-06-22T12:16:37;26.90;99.90
19945;DHT22;10134;50.952;6.930;2023-06-22T12:19:05;26.90;99.90
19945;DHT22;10134;50.952;6.930;2023-06-22T12:21:33;27.00;99.90
19945;DHT22;10134;50.952;6.930;2023-06-22T12:24:00;26.90;99.90
19945;DHT22;10134;50.952;6.930;2023-06-22T12:26:27;27.00;99.90
19945;DHT22;10134;50.952;6.930;2023-06-22T12:28:55;27.00;99.90
19945;DHT22;10134;50.952;6.930;2023-06-22T12:31:22;26.90;99.90
19945;DHT22;10134;50.952;6.930;2023-06-22T12:33:49;26.90;99.90
19945;DHT22;10134;50.952;6.930;2023-06-22T12:36:17;27.00;99.90
19945;DHT22;10134;50.952;6.930;2023-06-22T12:38:44;27.00;99.90
19945;DHT22;10134;50.952;6.930;2023-06-22T12:41:11;27.10;99.90
19945;DHT22;10134;50.952;6.930;2023-06-22T12:43:40;27.20;99.90
19945;DHT22;10134;50.952;6.930;2023-06-22T12:46:07;27.30;99.90
19945;DHT22;10134;50.952;6.930;2023-06-22T12:48:35;27.30;99.90
19945;DHT22;10134;50.952;6.930;2023-06-22T12:51:09;27.40;99.90
19945;DHT22;10134;50.952;6.930;2023-06-22T12:53:37;27.40;99.90
19945;DHT22;10134;50.952;6.930;2023-06-22T12:56:04;27.50;99.90
19945;DHT22;10134;50.952;6.930;2023-06-22T12:58:31;27.60;99.90
19945;DHT22;10134;50.952;6.930;2023-06-22T13:00:58;27.60;99.90
19945;DHT22;10134;50.952;6.930;2023-06-22T13:03:26;27.70;99.90
19945;DHT22;10134;50.952;6.930;2023-06-22T13:05:54;27.80;99.90
19945;DHT22;10134;50.952;6.930;2023-06-22T13:08:22;28.00;99.90
19945;DHT22;10134;50.952;6.930;2023-06-22T13:11:01;28.00;99.90
19945;DHT22;10134;50.952;6.930;2023-06-22T13:13:29;28.10;99.90
19945;DHT22;10134;50.952;6.930;2023-06-22T13:15:56;28.10;99.90
19945;DHT22;10134;50.952;6.930;2023-06-22T13:18:24;28.10;99.90
19945;DHT22;10134;50.952;6.930;2023-06-22T13:20:51;28.20;99.90
19945;DHT22;10134;50.952;6.930;2023-06-22T13:23:21;28.30;99.90
19945;DHT22;10134;50.952;6.930;2023-06-22T13:25:50;28.30;99.90
19945;DHT22;10134;50.952;6.930;2023-06-22T13:28:17;28.30;99.90
19945;DHT22;10134;50.952;6.930;2023-06-22T13:30:55;28.40;99.90
19945;DHT22;10134;50.952;6.930;2023-06-22T13:33:22;28.50;99.90
19945;DHT22;10134;50.952;6.930;2023-06-22T13:35:49;28.60;99.90
19945;DHT22;10134;50.952;6.930;2023-06-22T13:38:17;28.70;99.90
19945;DHT22;10134;50.952;6.930;2023-06-22T13:40:44;28.80;99.90
19945;DHT22;10134;50.952;6.930;2023-06-22T13:43:12;28.90;99.90
19945;DHT22;10134;50.952;6.930;2023-06-22T13:45:39;29.00;99.90
19945;DHT22;10134;50.952;6.930;2023-06-22T13:48:07;29.10;99.90
19945;DHT22;10134;50.952;6.930;2023-06-22T13:50:35;29.30;99.90
19945;DHT22;10134;50.952;6.930;2023-06-22T13:53:02;29.40;99.90
19945;DHT22;10134;50.952;6.930;2023-06-22T13:55:30;29.50;99.90
19945;DHT22;10134;50.952;6.930;2023-06-22T13:57:57;29.60;99.90
19945;DHT22;10134;50.952;6.930;2023-06-22T14:00:25;29.70;99.90
19945;DHT22;10134;50.952;6.930;2023-06-22T14:02:52;29.70;99.90
19945;DHT22;10134;50.952;6.930;2023-06-22T14:05:20;29.70;99.90
19945;DHT22;10134;50.952;6.930;2023-06-22T14:07:47;29.70;99.90
19945;DHT22;10134;50.952;6.930;2023-06-22T14:10:15;29.70;99.90
19945;DHT22;10134;50.952;6.930;2023-06-22T14:12:42;29.70;99.90
19945;DHT22;10134;50.952;6.930;2023-06-22T14:15:10;29.80;99.90
19945;DHT22;10134;50.952;6.930;2023-06-22T14:17:37;29.90;99.90
19945;DHT22;10134;50.952;6.930;2023-06-22T14:20:05;29.90;99.90
19945;DHT22;10134;50.952;6.930;2023-06-22T14:22:35;29.90;99.90
19945;DHT22;10134;50.952;6.930;2023-06-22T14:25:06;29.90;99.90
19945;DHT22;10134;50.952;6.930;2023-06-22T14:27:33;29.70;99.90
19945;DHT22;10134;50.952;6.930;2023-06-22T14:30:01;29.60;99.90
19945;DHT22;10134;50.952;6.930;2023-06-22T14:32:32;29.60;99.90
19945;DHT22;10134;50.952;6.930;2023-06-22T14:35:02;29.50;99.90
19945;DHT22;10134;50.952;6.930;2023-06-22T14:37:30;29.40;99.90
19945;DHT22;10134;50.952;6.930;2023-06-22T14:39:57;29.30;99.90
19945;DHT22;10134;50.952;6.930;2023-06-22T14:42:25;29.10;99.90
19945;DHT22;10134;50.952;6.930;2023-06-22T14:44:54;29.10;99.90
19945;DHT22;10134;50.952;6.930;2023-06-22T14:47:21;29.00;99.90
19945;DHT22;10134;50.952;6.930;2023-06-22T14:49:48;29.00;99.90
19945;DHT22;10134;50.952;6.930;2023-06-22T14:52:16;28.80;99.90
19945;DHT22;10134;50.952;6.930;2023-06-22T14:54:43;28.80;99.90
19945;DHT22;10134;50.952;6.930;2023-06-22T14:57:10;28.70;99.90
19945;DHT22;10134;50.952;6.930;2023-06-22T14:59:38;28.70;99.90
19945;DHT22;10134;50.952;6.930;2023-06-22T15:02:05;28.60;99.90
19945;DHT22;10134;50.952;6.930;2023-06-22T15:04:32;28.50;99.90
19945;DHT22;10134;50.952;6.930;2023-06-22T15:07:02;28.40;99.90
19945;DHT22;10134;50.952;6.930;2023-06-22T15:09:29;28.30;99.90
19945;DHT22;10134;50.952;6.930;2023-06-22T15:11:57;28.10;99.90
19945;DHT22;10134;50.952;6.930;2023-06-22T15:14:24;28.00;99.90
19945;DHT22;10134;50.952;6.930;2023-06-22T15:16:52;27.90;99.90
19945;DHT22;10134;50.952;6.930;2023-06-22T15:19:20;27.70;99.90
19945;DHT22;10134;50.952;6.930;2023-06-22T15:21:47;27.60;99.90
19945;DHT22;10134;50.952;6.930;2023-06-22T15:24:14;27.50;99.90
19945;DHT22;10134;50.952;6.930;2023-06-22T15:26:42;27.30;99.90
19945;DHT22;10134;50.952;6.930;2023-06-22T15:29:10;27.20;99.90
19945;DHT22;10134;50.952;6.930;2023-06-22T15:31:38;27.00;99.90
19945;DHT22;10134;50.952;6.930;2023-06-22T15:34:05;26.90;99.90
19945;DHT22;10134;50.952;6.930;2023-06-22T15:36:34;26.90;99.90
19945;DHT22;10134;50.952;6.930;2023-06-22T15:39:01;26.70;99.90
19945;DHT22;10134;50.952;6.930;2023-06-22T15:41:28;26.60;99.90
19945;DHT22;10134;50.952;6.930;2023-06-22T15:43:55;26.50;99.90
19945;DHT22;10134;50.952;6.930;2023-06-22T15:46:23;26.40;99.90
19945;DHT22;10134;50.952;6.930;2023-06-22T15:48:50;26.30;99.90
19945;DHT22;10134;50.952;6.930;2023-06-22T15:51:21;26.20;99.90
19945;DHT22;10134;50.952;6.930;2023-06-22T15:53:49;26.10;99.90
19945;DHT22;10134;50.952;6.930;2023-06-22T15:56:16;26.10;99.90
19945;DHT22;10134;50.952;6.930;2023-06-22T15:58:43;26.00;99.90